sensor_id;sensor_type;location;lat;lon;timestamp;pressure;altitude;pressure_sealevel;temperature
15845;BMP180;50807;52.436;13.346;2023-05-10T00:00:13;100791.00;;;16.60
15845;BMP180;50807;52.436;13.346;2023-05-10T00:00:43;100792.00;;;16.60
15845;BMP180;50807;52.436;13.346;2023-05-10T00:01:15;100785.00;;;16.60
15845;BMP180;50807;52.436;13.346;2023-05-10T00:01:46;100792.00;;;16.60
15845;BMP180;50807;52.436;13.346;2023-05-10T00:02:16;100791.00;;;16.60
15845;BMP180;50807;52.436;13.346;2023-05-10T00:02:48;100788.00;;;16.50
15845;BMP180;50807;52.436;13.346;2023-05-10T00:03:19;100791.00;;;16.50
15845;BMP180;50807;52.436;13.346;2023-05-10T00:03:50;100788.00;;;16.50
15845;BMP180;50807;52.436;13.346;2023-05-10T00:04:21;100790.00;;;16.50
15845;BMP180;50807;52.436;13.346;2023-05-10T00:04:52;100791.00;;;16.50
15845;BMP180;50807;52.436;13.346;2023-05-10T00:05:23;100791.00;;;16.50
15845;BMP180;50807;52.436;13.346;2023-05-10T00:05:55;100793.00;;;16.50
15845;BMP180;50807;52.436;13.346;2023-05-10T00:06:27;100789.00;;;16.50
15845;BMP180;50807;52.436;13.346;2023-05-10T00:06:58;100791.00;;;16.50
15845;BMP180;50807;52.436;13.346;2023-05-10T00:07:30;100790.00;;;16.50
15845;BMP180;50807;52.436;13.346;2023-05-10T00:08:01;100791.00;;;16.50
15845;BMP180;50807;52.436;13.346;2023-05-10T00:08:32;100786.00;;;16.50
15845;BMP180;50807;52.436;13.346;2023-05-10T00:09:04;100778.00;;;16.50
15845;BMP180;50807;52.436;13.346;2023-05-10T00:09:34;100785.00;;;16.50
15845;BMP180;50807;52.436;13.346;2023-05-10T00:10:06;100790.00;;;16.50
15845;BMP180;50807;52.436;13.346;2023-05-10T00:10:38;100792.00;;;16.50
15845;BMP180;50807;52.436;13.346;2023-05-10T00:11:09;100783.00;;;16.50
15845;BMP180;50807;52.436;13.346;2023-05-10T00:11:40;100785.00;;;16.50
15845;BMP180;50807;52.436;13.346;2023-05-10T00:12:11;100786.00;;;16.50
15845;BMP180;50807;52.436;13.346;2023-05-10T00:12:42;100792.00;;;16.50
15845;BMP180;50807;52.436;13.346;2023-05-10T00:13:13;100783.00;;;16.50
15845;BMP180;50807;52.436;13.346;2023-05-10T00:13:45;100783.00;;;16.50
15845;BMP180;50807;52.436;13.346;2023-05-10T00:14:16;100788.00;;;16.50
15845;BMP180;50807;52.436;13.346;2023-05-10T00:14:47;100778.00;;;16.50
15845;BMP180;50807;52.436;13.346;2023-05-10T00:15:18;100781.00;;;16.50
15845;BMP180;50807;52.436;13.346;2023-05-10T00:15:49;100787.00;;;16.40
15845;BMP180;50807;52.436;13.346;2023-05-10T00:16:21;100779.00;;;16.40
15845;BMP180;50807;52.436;13.346;2023-05-10T00:16:52;100775.00;;;16.50
15845;BMP180;50807;52.436;13.346;2023-05-10T00:17:23;100786.00;;;16.40
15845;BMP180;50807;52.436;13.346;2023-05-10T00:17:54;100783.00;;;16.40
15845;BMP180;50807;52.436;13.346;2023-05-10T00:18:24;100777.00;;;16.40
15845;BMP180;50807;52.436;13.346;2023-05-10T00:18:56;100779.00;;;16.40
15845;BMP180;50807;52.436;13.346;2023-05-10T00:19:27;100780.00;;;16.40
15845;BMP180;50807;52.436;13.346;2023-05-10T00:19:59;100786.00;;;16.40
15845;BMP180;50807;52.436;13.346;2023-05-10T00:20:30;100771.00;;;16.40
15845;BMP180;50807;52.436;13.346;2023-05-10T00:21:01;100779.00;;;16.40
15845;BMP180;50807;52.436;13.346;2023-05-10T00:21:34;100780.00;;;16.40
15845;BMP180;50807;52.436;13.346;2023-05-10T00:22:05;100782.00;;;16.40
15845;BMP180;50807;52.436;13.346;2023-05-10T00:22:36;100772.00;;;16.40
15845;BMP180;50807;52.436;13.346;2023-05-10T00:23:07;100775.00;;;16.40
15845;BMP180;50807;52.436;13.346;2023-05-10T00:23:38;100772.00;;;16.40
15845;BMP180;50807;52.436;13.346;2023-05-10T00:24:09;100772.00;;;16.40
15845;BMP180;50807;52.436;13.346;2023-05-10T00:24:40;100774.00;;;16.40
15845;BMP180;50807;52.436;13.346;2023-05-10T00:25:10;100773.00;;;16.40
15845;BMP180;50807;52.436;13.346;2023-05-10T00:25:42;100769.00;;;16.40
15845;BMP180;50807;52.436;13.346;2023-05-10T00:26:13;100775.00;;;16.40
15845;BMP180;50807;52.436;13.346;2023-05-10T00:26:44;100767.00;;;16.40
15845;BMP180;50807;52.436;13.346;2023-05-10T00:27:15;100769.00;;;16.40
15845;BMP180;50807;52.436;13.346;2023-05-10T00:27:46;100765.00;;;16.40
15845;BMP180;50807;52.436;13.346;2023-05-10T00:28:17;100764.00;;;16.40
15845;BMP180;50807;52.436;13.346;2023-05-10T00:28:48;100756.00;;;16.40
15845;BMP180;50807;52.436;13.346;2023-05-10T00:29:19;100760.00;;;16.30
15845;BMP180;50807;52.436;13.346;2023-05-10T00:29:50;100765.00;;;16.30
15845;BMP180;50807;52.436;13.346;2023-05-10T00:30:21;100768.00;;;16.30
15845;BMP180;50807;52.436;13.346;2023-05-10T00:30:53;100762.00;;;16.30
15845;BMP180;50807;52.436;13.346;2023-05-10T00:31:23;100757.00;;;16.30
15845;BMP180;50807;52.436;13.346;2023-05-10T00:31:54;100768.00;;;16.30
15845;BMP180;50807;52.436;13.346;2023-05-10T00:32:26;100762.00;;;16.30
15845;BMP180;50807;52.436;13.346;2023-05-10T00:32:57;100754.00;;;16.30
15845;BMP180;50807;52.436;13.346;2023-05-10T00:33:28;100748.00;;;16.30
15845;BMP180;50807;52.436;13.346;2023-05-10T00:34:00;100760.00;;;16.30
15845;BMP180;50807;52.436;13.346;2023-05-10T00:34:30;100761.00;;;16.30
15845;BMP180;50807;52.436;13.346;2023-05-10T00:35:01;100761.00;;;16.20
15845;BMP180;50807;52.436;13.346;2023-05-10T00:35:33;100758.00;;;16.20
15845;BMP180;50807;52.436;13.346;2023-05-10T00:36:05;100758.00;;;16.20
15845;BMP180;50807;52.436;13.346;2023-05-10T00:36:39;100755.00;;;16.20
15845;BMP180;50807;52.436;13.346;2023-05-10T00:37:11;100760.00;;;16.20
15845;BMP180;50807;52.436;13.346;2023-05-10T00:37:41;100756.00;;;16.20
15845;BMP180;50807;52.436;13.346;2023-05-10T00:38:12;100765.00;;;16.20
15845;BMP180;50807;52.436;13.346;2023-05-10T00:38:44;100760.00;;;16.20
15845;BMP180;50807;52.436;13.346;2023-05-10T00:39:16;100754.00;;;16.20
15845;BMP180;50807;52.436;13.346;2023-05-10T00:39:47;100760.00;;;16.20
15845;BMP180;50807;52.436;13.346;2023-05-10T00:40:18;100765.00;;;16.20
15845;BMP180;50807;52.436;13.346;2023-05-10T00:40:49;100756.00;;;16.20
15845;BMP180;50807;52.436;13.346;2023-05-10T00:41:20;100766.00;;;16.20
15845;BMP180;50807;52.436;13.346;2023-05-10T00:41:52;100751.00;;;16.20
15845;BMP180;50807;52.436;13.346;2023-05-10T00:42:23;100753.00;;;16.20
15845;BMP180;50807;52.436;13.346;2023-05-10T00:42:53;100758.00;;;16.10
15845;BMP180;50807;52.436;13.346;2023-05-10T00:43:24;100756.00;;;16.20
15845;BMP180;50807;52.436;13.346;2023-05-10T00:43:56;100752.00;;;16.10
15845;BMP180;50807;52.436;13.346;2023-05-10T00:44:27;100752.00;;;16.10
15845;BMP180;50807;52.436;13.346;2023-05-10T00:44:58;100750.00;;;16.10
15845;BMP180;50807;52.436;13.346;2023-05-10T00:45:30;100758.00;;;16.20
15845;BMP180;50807;52.436;13.346;2023-05-10T00:46:01;100758.00;;;16.20
15845;BMP180;50807;52.436;13.346;2023-05-10T00:46:32;100761.00;;;16.10
15845;BMP180;50807;52.436;13.346;2023-05-10T00:47:04;100753.00;;;16.10
15845;BMP180;50807;52.436;13.346;2023-05-10T00:47:35;100742.00;;;16.10
15845;BMP180;50807;52.436;13.346;2023-05-10T00:48:06;100754.00;;;16.10
15845;BMP180;50807;52.436;13.346;2023-05-10T00:48:39;100754.00;;;16.10
15845;BMP180;50807;52.436;13.346;2023-05-10T00:49:10;100751.00;;;16.10
15845;BMP180;50807;52.436;13.346;2023-05-10T00:49:42;100753.00;;;16.10
15845;BMP180;50807;52.436;13.346;2023-05-10T00:50:14;100760.00;;;16.10
15845;BMP180;50807;52.436;13.346;2023-05-10T00:50:45;100757.00;;;16.10
15845;BMP180;50807;52.436;13.346;2023-05-10T00:51:16;100742.00;;;16.10
15845;BMP180;50807;52.436;13.346;2023-05-10T00:51:49;100746.00;;;16.10
15845;BMP180;50807;52.436;13.346;2023-05-10T00:52:21;100746.00;;;16.10
15845;BMP180;50807;52.436;13.346;2023-05-10T00:52:54;100745.00;;;16.10
15845;BMP180;50807;52.436;13.346;2023-05-10T00:53:26;100745.00;;;16.10
15845;BMP180;50807;52.436;13.346;2023-05-10T00:53:58;100747.00;;;16.10
15845;BMP180;50807;52.436;13.346;2023-05-10T00:54:30;100738.00;;;16.10
15845;BMP180;50807;52.436;13.346;2023-05-10T00:55:01;100743.00;;;16.10
15845;BMP180;50807;52.436;13.346;2023-05-10T00:55:34;100739.00;;;16.10
15845;BMP180;50807;52.436;13.346;2023-05-10T00:56:05;100743.00;;;16.10
15845;BMP180;50807;52.436;13.346;2023-05-10T00:56:37;100742.00;;;16.10
15845;BMP180;50807;52.436;13.346;2023-05-10T00:57:08;100739.00;;;16.10
15845;BMP180;50807;52.436;13.346;2023-05-10T00:57:39;100740.00;;;16.10
15845;BMP180;50807;52.436;13.346;2023-05-10T00:58:11;100743.00;;;16.10
15845;BMP180;50807;52.436;13.346;2023-05-10T00:58:43;100740.00;;;16.10
15845;BMP180;50807;52.436;13.346;2023-05-10T00:59:14;100737.00;;;16.10
15845;BMP180;50807;52.436;13.346;2023-05-10T00:59:47;100744.00;;;16.10
15845;BMP180;50807;52.436;13.346;2023-05-10T01:00:19;100738.00;;;16.10
15845;BMP180;50807;52.436;13.346;2023-05-10T01:00:51;100741.00;;;16.10
15845;BMP180;50807;52.436;13.346;2023-05-10T01:01:22;100749.00;;;16.10
15845;BMP180;50807;52.436;13.346;2023-05-10T01:01:54;100740.00;;;16.10
15845;BMP180;50807;52.436;13.346;2023-05-10T01:02:25;100747.00;;;16.10
15845;BMP180;50807;52.436;13.346;2023-05-10T01:02:56;100742.00;;;16.10
15845;BMP180;50807;52.436;13.346;2023-05-10T01:03:28;100731.00;;;16.10
15845;BMP180;50807;52.436;13.346;2023-05-10T01:04:01;100740.00;;;16.10
15845;BMP180;50807;52.436;13.346;2023-05-10T01:04:33;100734.00;;;16.10
15845;BMP180;50807;52.436;13.346;2023-05-10T01:05:05;100734.00;;;16.10
15845;BMP180;50807;52.436;13.346;2023-05-10T01:05:37;100742.00;;;16.10
15845;BMP180;50807;52.436;13.346;2023-05-10T01:06:08;100736.00;;;16.10
15845;BMP180;50807;52.436;13.346;2023-05-10T01:06:41;100736.00;;;16.10
15845;BMP180;50807;52.436;13.346;2023-05-10T01:07:13;100731.00;;;16.10
15845;BMP180;50807;52.436;13.346;2023-05-10T01:07:45;100730.00;;;16.00
15845;BMP180;50807;52.436;13.346;2023-05-10T01:08:16;100726.00;;;16.10
15845;BMP180;50807;52.436;13.346;2023-05-10T01:08:47;100735.00;;;16.00
15845;BMP180;50807;52.436;13.346;2023-05-10T01:09:20;100728.00;;;16.00
15845;BMP180;50807;52.436;13.346;2023-05-10T01:09:51;100739.00;;;16.10
15845;BMP180;50807;52.436;13.346;2023-05-10T01:10:22;100736.00;;;16.10
15845;BMP180;50807;52.436;13.346;2023-05-10T01:10:53;100722.00;;;16.00
15845;BMP180;50807;52.436;13.346;2023-05-10T01:11:25;100729.00;;;16.00
15845;BMP180;50807;52.436;13.346;2023-05-10T01:11:57;100731.00;;;16.00
15845;BMP180;50807;52.436;13.346;2023-05-10T01:12:28;100730.00;;;16.10
15845;BMP180;50807;52.436;13.346;2023-05-10T01:13:00;100729.00;;;16.00
15845;BMP180;50807;52.436;13.346;2023-05-10T01:13:34;100739.00;;;16.00
15845;BMP180;50807;52.436;13.346;2023-05-10T01:14:07;100727.00;;;16.10
15845;BMP180;50807;52.436;13.346;2023-05-10T01:14:40;100721.00;;;16.00
15845;BMP180;50807;52.436;13.346;2023-05-10T01:15:12;100734.00;;;16.00
15845;BMP180;50807;52.436;13.346;2023-05-10T01:15:43;100724.00;;;16.00
15845;BMP180;50807;52.436;13.346;2023-05-10T01:16:15;100722.00;;;16.00
15845;BMP180;50807;52.436;13.346;2023-05-10T01:16:49;100729.00;;;16.00
15845;BMP180;50807;52.436;13.346;2023-05-10T01:17:21;100726.00;;;16.00
15845;BMP180;50807;52.436;13.346;2023-05-10T01:17:53;100730.00;;;16.00
15845;BMP180;50807;52.436;13.346;2023-05-10T01:18:26;100730.00;;;16.00
15845;BMP180;50807;52.436;13.346;2023-05-10T01:18:57;100726.00;;;16.00
15845;BMP180;50807;52.436;13.346;2023-05-10T01:19:31;100726.00;;;16.00
15845;BMP180;50807;52.436;13.346;2023-05-10T01:20:07;100720.00;;;15.90
15845;BMP180;50807;52.436;13.346;2023-05-10T01:20:43;100727.00;;;15.90
15845;BMP180;50807;52.436;13.346;2023-05-10T01:21:27;100729.00;;;15.80
15845;BMP180;50807;52.436;13.346;2023-05-10T01:22:12;100730.00;;;15.80
15845;BMP180;50807;52.436;13.346;2023-05-10T01:23:35;100727.00;;;15.60
15845;BMP180;50807;52.436;13.346;2023-05-10T01:24:40;100730.00;;;15.50
15845;BMP180;50807;52.436;13.346;2023-05-10T01:26:03;100724.00;;;15.40
15845;BMP180;50807;52.436;13.346;2023-05-10T01:27:16;100718.00;;;15.30
15845;BMP180;50807;52.436;13.346;2023-05-10T01:28:17;100714.00;;;15.30
15845;BMP180;50807;52.436;13.346;2023-05-10T01:29:32;100727.00;;;15.30
15845;BMP180;50807;52.436;13.346;2023-05-10T01:31:03;100728.00;;;15.20
15845;BMP180;50807;52.436;13.346;2023-05-10T01:32:11;100722.00;;;15.20
15845;BMP180;50807;52.436;13.346;2023-05-10T01:32:54;100726.00;;;15.30
15845;BMP180;50807;52.436;13.346;2023-05-10T01:33:33;100723.00;;;15.40
15845;BMP180;50807;52.436;13.346;2023-05-10T01:34:09;100721.00;;;15.40
15845;BMP180;50807;52.436;13.346;2023-05-10T01:35:02;100723.00;;;15.30
15845;BMP180;50807;52.436;13.346;2023-05-10T01:35:41;100722.00;;;15.40
15845;BMP180;50807;52.436;13.346;2023-05-10T01:36:20;100715.00;;;15.40
15845;BMP180;50807;52.436;13.346;2023-05-10T01:38:58;100718.00;;;15.20
15845;BMP180;50807;52.436;13.346;2023-05-10T01:39:39;100721.00;;;15.20
15845;BMP180;50807;52.436;13.346;2023-05-10T01:40:24;100711.00;;;15.20
15845;BMP180;50807;52.436;13.346;2023-05-10T01:41:08;100712.00;;;15.20
15845;BMP180;50807;52.436;13.346;2023-05-10T01:41:49;100720.00;;;15.20
15845;BMP180;50807;52.436;13.346;2023-05-10T01:42:26;100713.00;;;15.30
15845;BMP180;50807;52.436;13.346;2023-05-10T01:43:03;100707.00;;;15.30
15845;BMP180;50807;52.436;13.346;2023-05-10T01:43:50;100718.00;;;15.30
15845;BMP180;50807;52.436;13.346;2023-05-10T01:44:33;100714.00;;;15.30
15845;BMP180;50807;52.436;13.346;2023-05-10T01:45:16;100706.00;;;15.30
15845;BMP180;50807;52.436;13.346;2023-05-10T01:45:59;100711.00;;;15.30
15845;BMP180;50807;52.436;13.346;2023-05-10T01:46:37;100715.00;;;15.30
15845;BMP180;50807;52.436;13.346;2023-05-10T01:47:14;100711.00;;;15.30
15845;BMP180;50807;52.436;13.346;2023-05-10T01:47:51;100719.00;;;15.30
15845;BMP180;50807;52.436;13.346;2023-05-10T01:48:27;100709.00;;;15.40
15845;BMP180;50807;52.436;13.346;2023-05-10T01:49:02;100716.00;;;15.40
15845;BMP180;50807;52.436;13.346;2023-05-10T01:49:40;100712.00;;;15.40
15845;BMP180;50807;52.436;13.346;2023-05-10T01:50:18;100709.00;;;15.30
15845;BMP180;50807;52.436;13.346;2023-05-10T01:50:51;100714.00;;;15.40
15845;BMP180;50807;52.436;13.346;2023-05-10T01:51:26;100716.00;;;15.40
15845;BMP180;50807;52.436;13.346;2023-05-10T01:52:06;100708.00;;;15.40
15845;BMP180;50807;52.436;13.346;2023-05-10T01:52:42;100716.00;;;15.40
15845;BMP180;50807;52.436;13.346;2023-05-10T01:53:19;100710.00;;;15.40
15845;BMP180;50807;52.436;13.346;2023-05-10T01:54:00;100712.00;;;15.30
15845;BMP180;50807;52.436;13.346;2023-05-10T01:54:33;100711.00;;;15.40
15845;BMP180;50807;52.436;13.346;2023-05-10T01:55:13;100704.00;;;15.30
15845;BMP180;50807;52.436;13.346;2023-05-10T01:55:48;100704.00;;;15.30
15845;BMP180;50807;52.436;13.346;2023-05-10T01:56:24;100713.00;;;15.30
15845;BMP180;50807;52.436;13.346;2023-05-10T01:57:03;100709.00;;;15.30
15845;BMP180;50807;52.436;13.346;2023-05-10T01:57:37;100709.00;;;15.40
15845;BMP180;50807;52.436;13.346;2023-05-10T01:58:14;100713.00;;;15.30
15845;BMP180;50807;52.436;13.346;2023-05-10T01:58:48;100702.00;;;15.30
15845;BMP180;50807;52.436;13.346;2023-05-10T01:59:22;100699.00;;;15.40
15845;BMP180;50807;52.436;13.346;2023-05-10T01:59:56;100704.00;;;15.40
15845;BMP180;50807;52.436;13.346;2023-05-10T02:00:29;100707.00;;;15.40
15845;BMP180;50807;52.436;13.346;2023-05-10T02:01:04;100704.00;;;15.30
15845;BMP180;50807;52.436;13.346;2023-05-10T02:01:37;100710.00;;;15.30
15845;BMP180;50807;52.436;13.346;2023-05-10T02:02:13;100707.00;;;15.30
15845;BMP180;50807;52.436;13.346;2023-05-10T02:02:47;100709.00;;;15.30
15845;BMP180;50807;52.436;13.346;2023-05-10T02:03:22;100711.00;;;15.30
15845;BMP180;50807;52.436;13.346;2023-05-10T02:03:57;100698.00;;;15.30
15845;BMP180;50807;52.436;13.346;2023-05-10T02:04:29;100699.00;;;15.30
15845;BMP180;50807;52.436;13.346;2023-05-10T02:05:01;100697.00;;;15.30
15845;BMP180;50807;52.436;13.346;2023-05-10T02:05:35;100706.00;;;15.30
15845;BMP180;50807;52.436;13.346;2023-05-10T02:06:10;100709.00;;;15.30
15845;BMP180;50807;52.436;13.346;2023-05-10T02:06:44;100701.00;;;15.40
15845;BMP180;50807;52.436;13.346;2023-05-10T02:07:17;100704.00;;;15.40
15845;BMP180;50807;52.436;13.346;2023-05-10T02:07:52;100704.00;;;15.40
15845;BMP180;50807;52.436;13.346;2023-05-10T02:08:24;100701.00;;;15.40
15845;BMP180;50807;52.436;13.346;2023-05-10T02:08:56;100706.00;;;15.40
15845;BMP180;50807;52.436;13.346;2023-05-10T02:09:32;100706.00;;;15.40
15845;BMP180;50807;52.436;13.346;2023-05-10T02:10:07;100709.00;;;15.40
15845;BMP180;50807;52.436;13.346;2023-05-10T02:10:39;100703.00;;;15.40
15845;BMP180;50807;52.436;13.346;2023-05-10T02:11:13;100706.00;;;15.40
15845;BMP180;50807;52.436;13.346;2023-05-10T02:11:45;100699.00;;;15.40
15845;BMP180;50807;52.436;13.346;2023-05-10T02:12:18;100705.00;;;15.40
15845;BMP180;50807;52.436;13.346;2023-05-10T02:12:51;100710.00;;;15.40
15845;BMP180;50807;52.436;13.346;2023-05-10T02:13:27;100711.00;;;15.40
15845;BMP180;50807;52.436;13.346;2023-05-10T02:13:59;100707.00;;;15.40
15845;BMP180;50807;52.436;13.346;2023-05-10T02:14:35;100708.00;;;15.40
15845;BMP180;50807;52.436;13.346;2023-05-10T02:15:08;100709.00;;;15.40
15845;BMP180;50807;52.436;13.346;2023-05-10T02:15:42;100707.00;;;15.40
15845;BMP180;50807;52.436;13.346;2023-05-10T02:16:16;100705.00;;;15.40
15845;BMP180;50807;52.436;13.346;2023-05-10T02:16:51;100713.00;;;15.30
15845;BMP180;50807;52.436;13.346;2023-05-10T02:17:25;100705.00;;;15.30
15845;BMP180;50807;52.436;13.346;2023-05-10T02:17:58;100706.00;;;15.30
15845;BMP180;50807;52.436;13.346;2023-05-10T02:18:33;100701.00;;;15.30
15845;BMP180;50807;52.436;13.346;2023-05-10T02:19:06;100705.00;;;15.30
15845;BMP180;50807;52.436;13.346;2023-05-10T02:19:42;100702.00;;;15.30
15845;BMP180;50807;52.436;13.346;2023-05-10T02:20:17;100705.00;;;15.30
15845;BMP180;50807;52.436;13.346;2023-05-10T02:20:51;100710.00;;;15.30
15845;BMP180;50807;52.436;13.346;2023-05-10T02:21:24;100701.00;;;15.30
15845;BMP180;50807;52.436;13.346;2023-05-10T02:21:57;100705.00;;;15.30
15845;BMP180;50807;52.436;13.346;2023-05-10T02:22:30;100703.00;;;15.30
15845;BMP180;50807;52.436;13.346;2023-05-10T02:23:03;100704.00;;;15.30
15845;BMP180;50807;52.436;13.346;2023-05-10T02:23:37;100704.00;;;15.20
15845;BMP180;50807;52.436;13.346;2023-05-10T02:24:10;100700.00;;;15.20
15845;BMP180;50807;52.436;13.346;2023-05-10T02:24:43;100703.00;;;15.20
15845;BMP180;50807;52.436;13.346;2023-05-10T02:25:18;100700.00;;;15.20
15845;BMP180;50807;52.436;13.346;2023-05-10T02:25:51;100699.00;;;15.20
15845;BMP180;50807;52.436;13.346;2023-05-10T02:26:25;100700.00;;;15.20
15845;BMP180;50807;52.436;13.346;2023-05-10T02:26:58;100700.00;;;15.20
15845;BMP180;50807;52.436;13.346;2023-05-10T02:27:30;100692.00;;;15.20
15845;BMP180;50807;52.436;13.346;2023-05-10T02:28:04;100704.00;;;15.20
15845;BMP180;50807;52.436;13.346;2023-05-10T02:28:37;100699.00;;;15.20
15845;BMP180;50807;52.436;13.346;2023-05-10T02:29:09;100704.00;;;15.20
15845;BMP180;50807;52.436;13.346;2023-05-10T02:29:44;100696.00;;;15.20
15845;BMP180;50807;52.436;13.346;2023-05-10T02:30:17;100699.00;;;15.20
15845;BMP180;50807;52.436;13.346;2023-05-10T02:30:50;100695.00;;;15.20
15845;BMP180;50807;52.436;13.346;2023-05-10T02:31:22;100695.00;;;15.20
15845;BMP180;50807;52.436;13.346;2023-05-10T02:31:54;100693.00;;;15.20
15845;BMP180;50807;52.436;13.346;2023-05-10T02:32:29;100695.00;;;15.20
15845;BMP180;50807;52.436;13.346;2023-05-10T02:33:01;100686.00;;;15.20
15845;BMP180;50807;52.436;13.346;2023-05-10T02:33:34;100696.00;;;15.20
15845;BMP180;50807;52.436;13.346;2023-05-10T02:34:08;100694.00;;;15.20
15845;BMP180;50807;52.436;13.346;2023-05-10T02:34:41;100702.00;;;15.20
15845;BMP180;50807;52.436;13.346;2023-05-10T02:35:14;100689.00;;;15.20
15845;BMP180;50807;52.436;13.346;2023-05-10T02:35:46;100693.00;;;15.20
15845;BMP180;50807;52.436;13.346;2023-05-10T02:36:19;100696.00;;;15.10
15845;BMP180;50807;52.436;13.346;2023-05-10T02:36:53;100695.00;;;15.10
15845;BMP180;50807;52.436;13.346;2023-05-10T02:37:25;100696.00;;;15.10
15845;BMP180;50807;52.436;13.346;2023-05-10T02:37:58;100698.00;;;15.10
15845;BMP180;50807;52.436;13.346;2023-05-10T02:38:31;100701.00;;;15.10
15845;BMP180;50807;52.436;13.346;2023-05-10T02:39:04;100695.00;;;15.10
15845;BMP180;50807;52.436;13.346;2023-05-10T02:39:41;100699.00;;;15.10
15845;BMP180;50807;52.436;13.346;2023-05-10T02:40:15;100688.00;;;15.10
15845;BMP180;50807;52.436;13.346;2023-05-10T02:40:48;100687.00;;;15.10
15845;BMP180;50807;52.436;13.346;2023-05-10T02:41:21;100688.00;;;15.00
15845;BMP180;50807;52.436;13.346;2023-05-10T02:41:53;100688.00;;;15.00
15845;BMP180;50807;52.436;13.346;2023-05-10T02:42:29;100695.00;;;15.00
15845;BMP180;50807;52.436;13.346;2023-05-10T02:43:02;100691.00;;;15.00
15845;BMP180;50807;52.436;13.346;2023-05-10T02:43:33;100695.00;;;15.00
15845;BMP180;50807;52.436;13.346;2023-05-10T02:44:08;100697.00;;;15.00
15845;BMP180;50807;52.436;13.346;2023-05-10T02:44:41;100701.00;;;15.00
15845;BMP180;50807;52.436;13.346;2023-05-10T02:45:19;100693.00;;;15.00
15845;BMP180;50807;52.436;13.346;2023-05-10T02:45:52;100695.00;;;15.00
15845;BMP180;50807;52.436;13.346;2023-05-10T02:46:23;100687.00;;;15.00
15845;BMP180;50807;52.436;13.346;2023-05-10T02:46:54;100688.00;;;15.00
15845;BMP180;50807;52.436;13.346;2023-05-10T02:47:29;100694.00;;;15.00
15845;BMP180;50807;52.436;13.346;2023-05-10T02:48:00;100694.00;;;15.00
15845;BMP180;50807;52.436;13.346;2023-05-10T02:48:31;100688.00;;;15.00
15845;BMP180;50807;52.436;13.346;2023-05-10T02:49:03;100690.00;;;15.00
15845;BMP180;50807;52.436;13.346;2023-05-10T02:49:34;100691.00;;;15.00
15845;BMP180;50807;52.436;13.346;2023-05-10T02:50:07;100692.00;;;15.00
15845;BMP180;50807;52.436;13.346;2023-05-10T02:50:44;100699.00;;;14.90
15845;BMP180;50807;52.436;13.346;2023-05-10T02:51:18;100692.00;;;14.90
15845;BMP180;50807;52.436;13.346;2023-05-10T02:51:56;100684.00;;;14.90
15845;BMP180;50807;52.436;13.346;2023-05-10T02:52:39;100689.00;;;14.80
15845;BMP180;50807;52.436;13.346;2023-05-10T02:53:15;100691.00;;;14.80
15845;BMP180;50807;52.436;13.346;2023-05-10T02:53:49;100689.00;;;14.90
15845;BMP180;50807;52.436;13.346;2023-05-10T02:54:30;100694.00;;;14.80
15845;BMP180;50807;52.436;13.346;2023-05-10T02:55:05;100692.00;;;14.90
15845;BMP180;50807;52.436;13.346;2023-05-10T02:55:40;100694.00;;;14.80
15845;BMP180;50807;52.436;13.346;2023-05-10T02:56:20;100692.00;;;14.80
15845;BMP180;50807;52.436;13.346;2023-05-10T02:56:58;100690.00;;;14.80
15845;BMP180;50807;52.436;13.346;2023-05-10T02:57:34;100697.00;;;14.80
15845;BMP180;50807;52.436;13.346;2023-05-10T02:58:06;100695.00;;;14.90
15845;BMP180;50807;52.436;13.346;2023-05-10T02:58:37;100690.00;;;14.90
15845;BMP180;50807;52.436;13.346;2023-05-10T02:59:07;100691.00;;;14.90
15845;BMP180;50807;52.436;13.346;2023-05-10T02:59:38;100696.00;;;14.90
15845;BMP180;50807;52.436;13.346;2023-05-10T03:00:11;100697.00;;;14.90
15845;BMP180;50807;52.436;13.346;2023-05-10T03:00:42;100697.00;;;14.90
15845;BMP180;50807;52.436;13.346;2023-05-10T03:01:13;100696.00;;;14.90
15845;BMP180;50807;52.436;13.346;2023-05-10T03:01:45;100693.00;;;14.90
15845;BMP180;50807;52.436;13.346;2023-05-10T03:02:15;100692.00;;;14.90
15845;BMP180;50807;52.436;13.346;2023-05-10T03:02:48;100690.00;;;14.90
15845;BMP180;50807;52.436;13.346;2023-05-10T03:03:19;100690.00;;;14.90
15845;BMP180;50807;52.436;13.346;2023-05-10T03:03:51;100696.00;;;14.90
15845;BMP180;50807;52.436;13.346;2023-05-10T03:04:22;100700.00;;;14.90
15845;BMP180;50807;52.436;13.346;2023-05-10T03:04:53;100698.00;;;14.90
15845;BMP180;50807;52.436;13.346;2023-05-10T03:05:24;100699.00;;;14.90
15845;BMP180;50807;52.436;13.346;2023-05-10T03:05:56;100690.00;;;14.90
15845;BMP180;50807;52.436;13.346;2023-05-10T03:06:28;100693.00;;;14.90
15845;BMP180;50807;52.436;13.346;2023-05-10T03:06:59;100691.00;;;14.90
15845;BMP180;50807;52.436;13.346;2023-05-10T03:07:30;100692.00;;;14.90
15845;BMP180;50807;52.436;13.346;2023-05-10T03:08:02;100690.00;;;14.90
15845;BMP180;50807;52.436;13.346;2023-05-10T03:08:34;100699.00;;;14.90
15845;BMP180;50807;52.436;13.346;2023-05-10T03:09:05;100695.00;;;14.80
15845;BMP180;50807;52.436;13.346;2023-05-10T03:09:40;100690.00;;;14.80
15845;BMP180;50807;52.436;13.346;2023-05-10T03:10:11;100698.00;;;14.90
15845;BMP180;50807;52.436;13.346;2023-05-10T03:11:09;100692.00;;;14.70
15845;BMP180;50807;52.436;13.346;2023-05-10T03:11:55;100690.00;;;14.60
15845;BMP180;50807;52.436;13.346;2023-05-10T03:12:37;100690.00;;;14.60
15845;BMP180;50807;52.436;13.346;2023-05-10T03:13:24;100689.00;;;14.60
15845;BMP180;50807;52.436;13.346;2023-05-10T03:14:12;100702.00;;;14.50
15845;BMP180;50807;52.436;13.346;2023-05-10T03:14:53;100690.00;;;14.50